Sankuniki — JD2465 — position and weather

sailwx.info

Track history (hours):
 
Tides and Currents Weather Stations Pressure Air Temp Water Temp Dewpoint Dewpoint Depression Visibility Wind Speed Wind Dir Waves Ship Positions

Sankuniki

Last reported at 2015-Aug-15 02:23 UTC. Time now 2015-Aug-28 00:20 UTC.
Position N 34°05' E 135°03'.
Warning: this ship's position is 12 days out of date.

Length 71 m; draft 4.3 m.

Type: Cargo ship. MMSI: 431000269.

Date/timePositionNaut miles runAvg speedWind from/ knotsBaromVisibWave heightAir tempDewpointWater temp
2015-Aug-15 02:23N 34°05' E 135°03'1012.0
2015-Aug-15 01:33N 34°14' E 135°06'1 0.9
2015-Aug-15 00:33N 34°15' E 135°07'0 0.0
2015-Aug-14 23:33N 34°15' E 135°07'0 0.0
2015-Aug-14 22:33N 34°15' E 135°07'0 0.0
2015-Aug-14 21:33N 34°15' E 135°07'0 0.0
2015-Aug-14 20:33N 34°15' E 135°07'0 0.0
2015-Aug-14 19:33N 34°15' E 135°07'0 0.0
2015-Aug-14 18:33N 34°15' E 135°07'0 0.0
2015-Aug-14 17:33N 34°15' E 135°07'0 0.0
2015-Aug-14 16:33N 34°15' E 135°07'0 0.0
2015-Aug-14 15:33N 34°15' E 135°07'0 0.0
2015-Aug-14 14:33N 34°15' E 135°07'0 0.4
2015-Aug-14 13:33N 34°15' E 135°06'0 0.0
2015-Aug-14 12:33N 34°15' E 135°06'0 0.0
2015-Aug-14 11:33N 34°15' E 135°06'0 0.0
2015-Aug-14 10:33N 34°15' E 135°06'0 0.0
2015-Aug-14 09:33N 34°15' E 135°06'0 0.0
2015-Aug-14 08:33N 34°15' E 135°06'0 0.0
2015-Aug-14 07:33N 34°15' E 135°06'0 0.0
2015-Aug-14 06:33N 34°15' E 135°06'1 1.3
2015-Aug-14 05:33N 34°14' E 135°05'  
2015-Aug-10 20:33N 34°06' E 135°02'9 9.6
2015-Aug-10 19:33N 34°15' E 135°07'0 0.0
2015-Aug-10 18:33N 34°15' E 135°07'0 0.0
2015-Aug-10 17:33N 34°15' E 135°07'0 0.0
2015-Aug-10 16:33N 34°15' E 135°07'0 0.0
2015-Aug-10 15:33N 34°15' E 135°07'0 0.0
2015-Aug-10 14:33N 34°15' E 135°07'0 0.0
2015-Aug-10 13:33N 34°15' E 135°07'0 0.0
2015-Aug-10 12:33N 34°15' E 135°07'0 0.0
2015-Aug-10 11:33N 34°15' E 135°07'0 0.0
2015-Aug-10 10:33N 34°15' E 135°07'0 0.0
2015-Aug-10 09:33N 34°15' E 135°07'0 0.0
2015-Aug-10 08:33N 34°15' E 135°07'1 0.8
2015-Aug-10 07:33N 34°15' E 135°06'0 0.0
2015-Aug-10 06:33N 34°15' E 135°06'0 0.0
2015-Aug-10 05:33N 34°15' E 135°06'5 4.7
2015-Aug-10 04:33N 34°10' E 135°04'228 5.0
2015-Aug-08 06:30N 35°03' E 139°34'1111.4
2015-Aug-08 05:33N 35°10' E 139°44'1111.4
2015-Aug-08 04:33N 35°21' E 139°42'1211.6
2015-Aug-08 03:33N 35°30' E 139°52'7 6.8
2015-Aug-08 02:33N 35°28' E 140°00'0 0.0
2015-Aug-08 01:33N 35°28' E 140°00'0 0.0
2015-Aug-08 00:33N 35°28' E 140°00'0 0.0
2015-Aug-07 23:33N 35°28' E 140°00'2 1.7
2015-Aug-07 22:33N 35°29' E 139°58'0 0.0
2015-Aug-07 21:33N 35°29' E 139°58'0 0.0
2015-Aug-07 20:33N 35°29' E 139°58'0 0.0
2015-Aug-07 19:33N 35°29' E 139°58'0 0.0
2015-Aug-07 18:33N 35°29' E 139°58'0 0.0
2015-Aug-07 17:33N 35°29' E 139°58'0 0.1
2015-Aug-07 16:33N 35°29' E 139°58'0 0.0
2015-Aug-07 15:33N 35°29' E 139°58'0 0.0
2015-Aug-07 14:33N 35°29' E 139°58'10 9.7
2015-Aug-07 13:33N 35°25' E 139°48'1111.1
2015-Aug-07 12:32N 35°14' E 139°47'1212.3
2015-Aug-07 11:33N 35°03' E 139°40'235 6.3
2015-Aug-05 22:32N 34°06' E 135°03'9 9.3
2015-Aug-05 21:33N 34°15' E 135°07'0 0.0
2015-Aug-05 20:33N 34°15' E 135°07'0 0.0
2015-Aug-05 19:33N 34°15' E 135°07'0 0.0
2015-Aug-05 18:33N 34°15' E 135°07'0 0.0
2015-Aug-05 17:33N 34°15' E 135°07'0 0.0
2015-Aug-05 16:33N 34°15' E 135°07'0 0.0
2015-Aug-05 15:33N 34°15' E 135°07'0 0.0
2015-Aug-05 14:33N 34°15' E 135°07'0 0.0
2015-Aug-05 13:33N 34°15' E 135°07'0 0.0
2015-Aug-05 12:33N 34°15' E 135°07'0 0.0
2015-Aug-05 11:33N 34°15' E 135°07'0 0.0
2015-Aug-05 10:33N 34°15' E 135°07'0 0.0
2015-Aug-05 09:33N 34°15' E 135°07'0 0.0
2015-Aug-05 08:33N 34°15' E 135°07'9 8.9
2015-Aug-05 07:33N 34°06' E 135°03'  
Track history (hours):
 
Tides and Currents Weather Stations Pressure Air Temp Water Temp Dewpoint Dewpoint Depression Visibility Wind Speed Wind Dir Waves Ship Positions

Sankuniki

Last reported at 2015-Aug-15 02:23 UTC. Time now 2015-Aug-28 00:20 UTC.
Position N 34°05' E 135°03'.
Warning: this ship's position is 12 days out of date.

Length 71 m; draft 4.3 m.

Type: Cargo ship. MMSI: 431000269.

Date/timePositionNaut miles runAvg speedWind from/ knotsBaromVisibWave heightAir tempDewpointWater temp
2015-Aug-15 02:23N 34°05' E 135°03'1012.0
2015-Aug-15 01:33N 34°14' E 135°06'1 0.9
2015-Aug-15 00:33N 34°15' E 135°07'0 0.0
2015-Aug-14 23:33N 34°15' E 135°07'0 0.0
2015-Aug-14 22:33N 34°15' E 135°07'0 0.0
2015-Aug-14 21:33N 34°15' E 135°07'0 0.0
2015-Aug-14 20:33N 34°15' E 135°07'0 0.0
2015-Aug-14 19:33N 34°15' E 135°07'0 0.0
2015-Aug-14 18:33N 34°15' E 135°07'0 0.0
2015-Aug-14 17:33N 34°15' E 135°07'0 0.0
2015-Aug-14 16:33N 34°15' E 135°07'0 0.0
2015-Aug-14 15:33N 34°15' E 135°07'0 0.0
2015-Aug-14 14:33N 34°15' E 135°07'0 0.4
2015-Aug-14 13:33N 34°15' E 135°06'0 0.0
2015-Aug-14 12:33N 34°15' E 135°06'0 0.0
2015-Aug-14 11:33N 34°15' E 135°06'0 0.0
2015-Aug-14 10:33N 34°15' E 135°06'0 0.0
2015-Aug-14 09:33N 34°15' E 135°06'0 0.0
2015-Aug-14 08:33N 34°15' E 135°06'0 0.0
2015-Aug-14 07:33N 34°15' E 135°06'0 0.0
2015-Aug-14 06:33N 34°15' E 135°06'1 1.3
2015-Aug-14 05:33N 34°14' E 135°05'  
2015-Aug-10 20:33N 34°06' E 135°02'9 9.6
2015-Aug-10 19:33N 34°15' E 135°07'0 0.0
2015-Aug-10 18:33N 34°15' E 135°07'0 0.0
2015-Aug-10 17:33N 34°15' E 135°07'0 0.0
2015-Aug-10 16:33N 34°15' E 135°07'0 0.0
2015-Aug-10 15:33N 34°15' E 135°07'0 0.0
2015-Aug-10 14:33N 34°15' E 135°07'0 0.0
2015-Aug-10 13:33N 34°15' E 135°07'0 0.0
2015-Aug-10 12:33N 34°15' E 135°07'0 0.0
2015-Aug-10 11:33N 34°15' E 135°07'0 0.0
2015-Aug-10 10:33N 34°15' E 135°07'0 0.0
2015-Aug-10 09:33N 34°15' E 135°07'0 0.0
2015-Aug-10 08:33N 34°15' E 135°07'1 0.8
2015-Aug-10 07:33N 34°15' E 135°06'0 0.0
2015-Aug-10 06:33N 34°15' E 135°06'0 0.0
2015-Aug-10 05:33N 34°15' E 135°06'5 4.7
2015-Aug-10 04:33N 34°10' E 135°04'228 5.0
2015-Aug-08 06:30N 35°03' E 139°34'1111.4
2015-Aug-08 05:33N 35°10' E 139°44'1111.4
2015-Aug-08 04:33N 35°21' E 139°42'1211.6
2015-Aug-08 03:33N 35°30' E 139°52'7 6.8
2015-Aug-08 02:33N 35°28' E 140°00'0 0.0
2015-Aug-08 01:33N 35°28' E 140°00'0 0.0
2015-Aug-08 00:33N 35°28' E 140°00'0 0.0
2015-Aug-07 23:33N 35°28' E 140°00'2 1.7
2015-Aug-07 22:33N 35°29' E 139°58'0 0.0
2015-Aug-07 21:33N 35°29' E 139°58'0 0.0
2015-Aug-07 20:33N 35°29' E 139°58'0 0.0
2015-Aug-07 19:33N 35°29' E 139°58'0 0.0
2015-Aug-07 18:33N 35°29' E 139°58'0 0.0
2015-Aug-07 17:33N 35°29' E 139°58'0 0.1
2015-Aug-07 16:33N 35°29' E 139°58'0 0.0
2015-Aug-07 15:33N 35°29' E 139°58'0 0.0
2015-Aug-07 14:33N 35°29' E 139°58'10 9.7
2015-Aug-07 13:33N 35°25' E 139°48'1111.1
2015-Aug-07 12:32N 35°14' E 139°47'1212.3
2015-Aug-07 11:33N 35°03' E 139°40'235 6.3
2015-Aug-05 22:32N 34°06' E 135°03'9 9.3
2015-Aug-05 21:33N 34°15' E 135°07'0 0.0
2015-Aug-05 20:33N 34°15' E 135°07'0 0.0
2015-Aug-05 19:33N 34°15' E 135°07'0 0.0
2015-Aug-05 18:33N 34°15' E 135°07'0 0.0
2015-Aug-05 17:33N 34°15' E 135°07'0 0.0
2015-Aug-05 16:33N 34°15' E 135°07'0 0.0
2015-Aug-05 15:33N 34°15' E 135°07'0 0.0
2015-Aug-05 14:33N 34°15' E 135°07'0 0.0
2015-Aug-05 13:33N 34°15' E 135°07'0 0.0
2015-Aug-05 12:33N 34°15' E 135°07'0 0.0
2015-Aug-05 11:33N 34°15' E 135°07'0 0.0
2015-Aug-05 10:33N 34°15' E 135°07'0 0.0
2015-Aug-05 09:33N 34°15' E 135°07'0 0.0
2015-Aug-05 08:33N 34°15' E 135°07'9 8.9
2015-Aug-05 07:33N 34°06' E 135°03'  

Dump ship's entire track history